Broadstairs, United Kingdom
Current Conditions -  °F | °C
As of 10:50 PM on Wednesday 22 Oct 2014 (Local Time) from EGMC Reporting Station
Clear Clear  
Wind Chill: 52°   Ceiling: Unl
Heat Index: 52°   Visibility: 6mi
Dew Point: 45°   Wind: 8mph
Humidity: 76%   Direction: 230°SW
Pressure: 30.21"   Gusts: NA
Location:  51.36°N, 1.44°E
Report Text: EGMC 222150Z 23007KT CAVOK 11/07 Q1023
Loading
Personal Weather Stations






























Interactive Weather Map
Tropical Storm Tracking
New forecast layout! Learn more

10-Day Weather Forecast

Advertisements
Track Severe Weather on mobile